createdAt,value
2017-12-12T00:01:44.441Z,8.55
2017-12-12T00:04:12.748Z,8.54
2017-12-12T00:06:41.864Z,8.56
2017-12-12T00:09:11.584Z,8.51
2017-12-12T00:11:39.945Z,8.49
2017-12-12T00:14:09.628Z,8.49
2017-12-12T00:16:38.057Z,8.51
2017-12-12T00:19:06.420Z,8.49
2017-12-12T00:21:35.516Z,8.50
2017-12-12T00:24:04.640Z,8.54
2017-12-12T00:26:33.001Z,8.54
2017-12-12T00:29:02.677Z,8.54
2017-12-12T00:31:31.008Z,8.51
2017-12-12T00:33:59.360Z,8.49
2017-12-12T00:36:27.688Z,8.47
2017-12-12T00:38:56.017Z,8.46
2017-12-12T00:41:24.760Z,8.40
2017-12-12T00:43:53.126Z,8.41
2017-12-12T00:46:21.445Z,8.40
2017-12-12T00:48:50.179Z,8.39
2017-12-12T00:51:18.554Z,8.34
2017-12-12T00:53:46.884Z,8.32
2017-12-12T00:56:15.968Z,8.33
2017-12-12T00:58:44.356Z,8.27
2017-12-12T01:01:13.448Z,8.27
2017-12-12T01:03:42.564Z,8.25
2017-12-12T01:06:10.932Z,8.26
2017-12-12T01:08:40.073Z,8.29
2017-12-12T01:11:08.396Z,8.35
2017-12-12T01:13:37.152Z,8.37
2017-12-12T01:16:05.480Z,8.40
2017-12-12T01:18:34.204Z,8.44
2017-12-12T01:21:02.571Z,8.46
2017-12-12T01:23:31.316Z,8.47
2017-12-12T01:26:00.477Z,8.48
2017-12-12T01:28:28.804Z,8.49
2017-12-12T01:30:57.136Z,8.48
2017-12-12T01:33:25.496Z,8.50
2017-12-12T01:35:54.956Z,8.51
2017-12-12T01:38:24.098Z,8.50
2017-12-12T01:40:53.192Z,8.50
2017-12-12T01:43:21.519Z,8.46
2017-12-12T01:45:49.892Z,8.48
2017-12-12T01:48:18.983Z,8.49
2017-12-12T01:50:47.359Z,8.48
2017-12-12T01:53:16.472Z,8.50
2017-12-12T01:55:45.659Z,8.57
2017-12-12T01:58:14.804Z,8.56
2017-12-12T02:00:43.184Z,8.53
2017-12-12T02:03:11.975Z,8.55
2017-12-12T02:05:40.312Z,8.50
2017-12-12T02:08:09.415Z,8.45
2017-12-12T02:10:37.789Z,8.43
2017-12-12T02:13:06.543Z,8.44
2017-12-12T02:15:34.915Z,8.44
2017-12-12T02:18:03.255Z,8.49
2017-12-12T02:20:31.663Z,8.51
2017-12-12T02:23:00.132Z,8.54
2017-12-12T02:25:28.472Z,8.51
2017-12-12T02:27:57.260Z,8.52
2017-12-12T02:30:25.983Z,8.58
2017-12-12T02:32:55.136Z,8.53
2017-12-12T02:35:23.933Z,8.51
2017-12-12T02:37:52.264Z,8.48
2017-12-12T02:40:20.703Z,8.47
2017-12-12T02:42:49.072Z,8.47
2017-12-12T02:45:17.426Z,8.49
2017-12-12T02:47:46.580Z,8.47
2017-12-12T02:50:15.352Z,8.50
2017-12-12T02:52:43.679Z,8.55
2017-12-12T02:55:12.452Z,8.64
2017-12-12T02:57:40.800Z,8.64
2017-12-12T03:00:09.263Z,8.62
2017-12-12T03:02:37.587Z,8.64
2017-12-12T03:05:07.351Z,8.67
2017-12-12T03:07:35.667Z,8.60
2017-12-12T03:10:04.383Z,8.58
2017-12-12T03:12:33.570Z,8.59
2017-12-12T03:15:02.707Z,8.58
2017-12-12T03:17:32.223Z,8.57
2017-12-12T03:20:01.347Z,8.65
2017-12-12T03:22:29.719Z,8.64
2017-12-12T03:24:58.104Z,8.64
2017-12-12T03:27:26.423Z,8.61
2017-12-12T03:29:54.791Z,8.61
2017-12-12T03:32:23.114Z,8.55
2017-12-12T03:34:51.459Z,8.56
2017-12-12T03:37:20.224Z,8.59
2017-12-12T03:39:48.966Z,8.62
2017-12-12T03:42:17.335Z,8.68
2017-12-12T03:44:45.658Z,8.75
2017-12-12T03:47:14.762Z,8.77
2017-12-12T03:49:44.251Z,8.85
2017-12-12T03:52:12.590Z,8.89
2017-12-12T03:54:40.959Z,8.89
2017-12-12T03:57:09.284Z,8.87
2017-12-12T03:59:37.647Z,8.90
2017-12-12T04:02:07.526Z,8.94
2017-12-12T04:04:35.894Z,8.96
2017-12-12T04:07:05.357Z,9.00
2017-12-12T04:09:34.110Z,9.02
2017-12-12T04:12:02.539Z,8.98
2017-12-12T04:14:30.858Z,8.98
2017-12-12T04:16:59.170Z,8.98
2017-12-12T04:19:27.529Z,8.95
2017-12-12T04:21:56.298Z,8.92
2017-12-12T04:24:24.694Z,8.83
2017-12-12T04:26:53.066Z,8.80
2017-12-12T04:29:21.374Z,8.78
2017-12-12T04:31:49.690Z,8.70
2017-12-12T04:34:18.450Z,8.69
2017-12-12T04:36:47.542Z,8.72
2017-12-12T04:39:16.666Z,8.72
2017-12-12T04:41:46.346Z,8.68
2017-12-12T04:44:15.474Z,8.70
2017-12-12T04:46:43.850Z,8.70
2017-12-12T04:49:12.202Z,8.68
2017-12-12T04:51:42.190Z,8.63
2017-12-12T04:54:10.950Z,8.58
2017-12-12T04:56:40.454Z,8.63
2017-12-12T04:59:08.770Z,8.59
2017-12-12T05:01:37.442Z,8.56
2017-12-12T05:04:05.794Z,8.59
2017-12-12T05:06:34.114Z,8.54
2017-12-12T05:09:02.942Z,8.54
2017-12-12T05:11:31.730Z,8.57
2017-12-12T05:14:01.618Z,8.58
2017-12-12T05:16:30.714Z,8.68
2017-12-12T05:18:59.841Z,8.75
2017-12-12T05:21:29.014Z,8.79
2017-12-12T05:23:58.111Z,8.80
2017-12-12T05:26:26.865Z,8.76
2017-12-12T05:28:55.190Z,8.78
2017-12-12T05:31:23.506Z,8.78
2017-12-12T05:33:51.874Z,8.79
2017-12-12T05:36:20.202Z,8.90
2017-12-12T05:38:49.342Z,8.92
2017-12-12T05:41:18.438Z,8.85
2017-12-12T05:43:47.150Z,8.95
2017-12-12T05:46:15.590Z,8.95
2017-12-12T05:48:44.706Z,8.93
2017-12-12T05:51:13.473Z,8.99
2017-12-12T05:53:42.188Z,9.05
2017-12-12T05:56:10.958Z,9.07
2017-12-12T05:58:39.277Z,9.05
2017-12-12T06:01:08.513Z,9.02
2017-12-12T06:03:36.882Z,9.03
2017-12-12T06:06:05.214Z,8.97
2017-12-12T06:08:33.537Z,9.15
2017-12-12T06:11:01.890Z,9.22
2017-12-12T06:13:31.022Z,9.34
2017-12-12T06:15:59.377Z,9.23
2017-12-12T06:18:27.746Z,9.23
2017-12-12T06:20:56.833Z,9.29
2017-12-12T06:23:25.965Z,9.39
2017-12-12T06:25:54.310Z,9.36
2017-12-12T06:28:23.123Z,9.33
2017-12-12T06:30:51.437Z,9.30
2017-12-12T06:33:19.765Z,9.33
2017-12-12T06:35:49.174Z,9.31
2017-12-12T06:38:17.498Z,9.31
2017-12-12T06:40:45.815Z,9.32
2017-12-12T06:43:14.179Z,9.27
2017-12-12T06:45:42.902Z,9.30
2017-12-12T06:48:11.223Z,9.30
2017-12-12T06:50:39.653Z,9.24
2017-12-12T06:53:07.989Z,9.36
2017-12-12T06:55:37.877Z,9.28
2017-12-12T06:58:06.676Z,9.27
2017-12-12T07:00:34.981Z,9.28
2017-12-12T07:03:04.491Z,9.23
2017-12-12T07:05:33.590Z,9.32
2017-12-12T07:08:02.738Z,9.21
2017-12-12T07:10:31.458Z,9.15
2017-12-12T07:12:59.810Z,9.16
2017-12-12T07:15:28.157Z,9.15
2017-12-12T07:17:56.529Z,9.35
2017-12-12T07:20:24.873Z,9.21
2017-12-12T07:22:54.064Z,9.21
2017-12-12T07:25:23.185Z,9.23
2017-12-12T07:27:51.573Z,9.15
2017-12-12T07:30:19.957Z,9.12
2017-12-12T07:32:48.673Z,9.09
2017-12-12T07:35:17.013Z,9.01
2017-12-12T07:37:45.349Z,8.96
2017-12-12T07:40:14.113Z,8.94
2017-12-12T07:42:42.438Z,8.94
2017-12-12T07:45:11.693Z,8.93
2017-12-12T07:47:40.016Z,9.04
2017-12-12T07:50:09.108Z,8.88
2017-12-12T07:52:38.262Z,8.88
2017-12-12T07:55:06.625Z,8.78
2017-12-12T07:57:35.892Z,8.69
2017-12-12T08:00:04.257Z,8.79
2017-12-12T08:02:33.400Z,8.77
2017-12-12T08:05:02.508Z,8.70
2017-12-12T08:07:31.216Z,8.62
2017-12-12T08:10:00.754Z,8.64
2017-12-12T08:12:30.040Z,8.73
2017-12-12T08:14:59.952Z,8.87
2017-12-12T08:17:28.700Z,8.80
2017-12-12T08:19:57.432Z,8.65
2017-12-12T08:22:26.581Z,8.51
2017-12-12T08:24:54.949Z,8.39
2017-12-12T08:27:24.624Z,8.53
2017-12-12T08:29:53.429Z,8.36
2017-12-12T08:32:21.763Z,8.11
2017-12-12T08:34:50.253Z,8.07
2017-12-12T08:37:19.005Z,8.12
2017-12-12T08:39:47.740Z,8.13
2017-12-12T08:42:16.561Z,8.42
2017-12-12T08:44:44.972Z,8.46
2017-12-12T08:47:14.064Z,8.42
2017-12-12T08:49:42.884Z,8.33
2017-12-12T08:52:12.552Z,8.22
2017-12-12T08:54:41.311Z,8.26
2017-12-12T08:57:10.048Z,8.15
2017-12-12T08:59:38.365Z,8.08
2017-12-12T09:02:07.092Z,8.08
2017-12-12T09:04:35.820Z,8.11
2017-12-12T09:07:04.956Z,8.14
2017-12-12T09:09:33.324Z,8.27
2017-12-12T09:12:02.089Z,8.19
2017-12-12T09:14:30.460Z,8.09
2017-12-12T09:16:59.180Z,7.94
2017-12-12T09:19:27.901Z,8.02
2017-12-12T09:21:57.226Z,7.76
2017-12-12T09:24:25.932Z,7.72
2017-12-12T09:26:54.652Z,7.61
2017-12-12T09:29:23.004Z,7.58
2017-12-12T09:31:51.328Z,7.62
2017-12-12T09:34:20.084Z,7.69
2017-12-12T09:36:49.175Z,7.50
2017-12-12T09:39:17.599Z,7.45
2017-12-12T09:41:45.966Z,7.22
2017-12-12T09:44:14.817Z,7.02
2017-12-12T09:46:43.136Z,7.04
2017-12-12T09:49:11.463Z,7.28
2017-12-12T09:51:39.844Z,7.39
2017-12-12T09:54:08.156Z,7.44
2017-12-12T09:56:36.511Z,7.61
2017-12-12T09:59:04.852Z,7.45
2017-12-12T10:01:33.178Z,7.19
2017-12-12T10:04:01.561Z,7.19
2017-12-12T10:06:29.904Z,7.29
2017-12-12T10:08:58.260Z,7.30
2017-12-12T10:11:27.792Z,6.99
2017-12-12T10:13:56.115Z,7.00
2017-12-12T10:16:25.923Z,6.92
2017-12-12T10:18:54.248Z,6.83
2017-12-12T10:21:22.566Z,6.88
2017-12-12T10:23:50.919Z,6.91
2017-12-12T10:26:19.263Z,6.83
2017-12-12T10:28:49.039Z,6.55
2017-12-12T10:31:17.356Z,6.49
2017-12-12T10:33:45.676Z,6.72
2017-12-12T10:36:14.796Z,6.80
2017-12-12T10:38:43.892Z,6.80
2017-12-12T10:41:12.660Z,6.67
2017-12-12T10:43:42.557Z,6.63
2017-12-12T10:46:12.034Z,6.61
2017-12-12T10:48:40.383Z,6.82
2017-12-12T10:51:08.739Z,6.89
2017-12-12T10:53:37.056Z,6.87
2017-12-12T10:56:05.407Z,7.07
2017-12-12T10:58:33.737Z,6.92
2017-12-12T11:01:02.060Z,6.85
2017-12-12T11:03:31.956Z,6.84
2017-12-12T11:06:00.288Z,6.81
2017-12-12T11:08:28.607Z,6.91
2017-12-12T11:10:58.484Z,6.70
2017-12-12T11:13:26.791Z,6.71
2017-12-12T11:15:55.547Z,6.77
2017-12-12T11:18:23.903Z,6.51
2017-12-12T11:20:53.027Z,6.60
2017-12-12T11:23:22.123Z,6.70
2017-12-12T11:25:50.508Z,6.74
2017-12-12T11:28:18.831Z,7.10
2017-12-12T11:30:47.659Z,7.19
2017-12-12T11:33:16.791Z,7.11
2017-12-12T11:35:46.566Z,7.10
2017-12-12T11:38:16.243Z,7.07
2017-12-12T11:40:45.384Z,6.88
2017-12-12T11:43:13.735Z,6.79
2017-12-12T11:45:42.111Z,6.77
2017-12-12T11:48:11.264Z,6.89
2017-12-12T11:50:39.628Z,7.05
2017-12-12T11:53:08.519Z,7.11
2017-12-12T11:55:36.891Z,7.14
2017-12-12T11:58:05.227Z,6.95
2017-12-12T12:00:34.355Z,6.67
2017-12-12T12:03:03.983Z,6.67
2017-12-12T12:05:32.339Z,6.55
2017-12-12T12:08:00.675Z,6.74
2017-12-12T12:10:30.375Z,6.92
2017-12-12T12:12:58.715Z,6.94
2017-12-12T12:15:28.584Z,6.99
2017-12-12T12:17:58.079Z,7.08
2017-12-12T12:20:26.402Z,6.88
2017-12-12T12:22:54.771Z,6.95
2017-12-12T12:25:23.159Z,6.88
2017-12-12T12:27:51.570Z,7.05
2017-12-12T12:30:21.291Z,7.11
2017-12-12T12:32:50.415Z,7.00
2017-12-12T12:35:18.760Z,6.88
2017-12-12T12:37:47.115Z,6.88
2017-12-12T12:40:15.458Z,6.75
2017-12-12T12:42:44.162Z,6.66
2017-12-12T12:45:12.695Z,6.54
2017-12-12T12:47:41.025Z,6.68
2017-12-12T12:50:10.536Z,6.48
2017-12-12T12:52:38.868Z,6.67
2017-12-12T12:55:07.204Z,6.60
2017-12-12T12:57:35.598Z,6.54
2017-12-12T13:00:04.135Z,6.57
2017-12-12T13:02:33.260Z,6.54
2017-12-12T13:05:01.692Z,6.59
2017-12-12T13:07:36.947Z,6.52
2017-12-12T13:12:59.552Z,6.62
2017-12-12T13:15:28.103Z,6.56
2017-12-12T13:17:58.114Z,6.45
2017-12-12T13:20:28.268Z,6.29
2017-12-12T13:23:04.578Z,6.50
2017-12-12T13:25:38.878Z,6.40
2017-12-12T13:28:11.754Z,6.29
2017-12-12T13:30:50.966Z,6.27
2017-12-12T13:33:39.242Z,6.28
2017-12-12T13:36:09.043Z,6.33
2017-12-12T13:38:38.142Z,6.30
2017-12-12T13:41:06.878Z,6.25
2017-12-12T13:43:35.234Z,6.16
2017-12-12T13:46:03.579Z,6.17
2017-12-12T13:48:32.683Z,6.34
2017-12-12T13:51:01.047Z,6.27
2017-12-12T13:53:30.532Z,6.37
2017-12-12T13:55:58.891Z,6.22
2017-12-12T13:58:27.234Z,6.28
2017-12-12T14:00:55.614Z,6.24
2017-12-12T14:03:24.742Z,6.24
2017-12-12T14:05:53.141Z,6.14
2017-12-12T14:08:21.537Z,6.20
2017-12-12T14:10:51.434Z,6.14
2017-12-12T14:13:19.863Z,6.21
2017-12-12T14:15:48.234Z,6.16
2017-12-12T14:18:16.565Z,6.12
2017-12-12T14:20:45.103Z,6.08
2017-12-12T14:23:13.882Z,6.06
2017-12-12T14:25:42.297Z,6.14
2017-12-12T14:28:11.038Z,6.08
2017-12-12T14:30:41.995Z,6.02
2017-12-12T14:33:11.874Z,5.97
2017-12-12T14:35:41.374Z,6.10
2017-12-12T14:38:09.783Z,6.10
2017-12-12T14:40:38.257Z,6.01
2017-12-12T14:43:07.948Z,6.08
2017-12-12T14:45:37.446Z,6.09
2017-12-12T14:48:06.948Z,6.03
2017-12-12T14:50:35.308Z,5.99
2017-12-12T14:53:03.667Z,5.90
2017-12-12T14:55:33.137Z,5.87
2017-12-12T14:58:03.017Z,5.91
2017-12-12T15:00:31.509Z,5.82
2017-12-12T15:03:00.963Z,5.81
2017-12-12T15:05:29.297Z,5.83
2017-12-12T15:07:57.650Z,5.85
2017-12-12T15:10:25.971Z,5.87
2017-12-12T15:12:54.379Z,5.89
2017-12-12T15:15:22.710Z,5.93
2017-12-12T15:17:52.214Z,5.91
2017-12-12T15:20:21.357Z,5.85
2017-12-12T15:22:49.703Z,5.82
2017-12-12T15:25:18.793Z,5.80
2017-12-12T15:27:47.209Z,5.80
2017-12-12T15:30:16.325Z,5.80
2017-12-12T15:32:44.677Z,5.92
2017-12-12T15:35:13.072Z,6.05
2017-12-12T15:37:41.481Z,6.03
2017-12-12T15:40:11.217Z,5.99
2017-12-12T15:42:39.905Z,5.99
2017-12-12T15:45:08.674Z,6.00
2017-12-12T15:47:37.791Z,6.00
2017-12-12T15:50:06.287Z,5.98
2017-12-12T15:52:35.945Z,6.02
2017-12-12T15:55:05.038Z,6.02
2017-12-12T15:57:33.968Z,5.88
2017-12-12T16:00:02.334Z,5.91
2017-12-12T16:02:31.569Z,5.91
2017-12-12T16:04:59.897Z,6.08
2017-12-12T16:07:28.795Z,6.04
2017-12-12T16:09:58.041Z,6.07
2017-12-12T16:12:26.450Z,5.93
2017-12-12T16:14:54.936Z,5.98
2017-12-12T16:17:23.270Z,6.02
2017-12-12T16:19:52.489Z,5.96
2017-12-12T16:22:21.014Z,5.87
2017-12-12T16:24:50.449Z,5.78
2017-12-12T16:27:19.574Z,5.78
2017-12-12T16:29:49.412Z,5.76
2017-12-12T16:32:18.559Z,5.81
2017-12-12T16:34:47.312Z,5.80
2017-12-12T16:37:16.575Z,5.78
2017-12-12T16:39:45.009Z,5.76
2017-12-12T16:42:13.333Z,5.77
2017-12-12T16:44:42.197Z,5.73
2017-12-12T16:47:10.612Z,5.75
2017-12-12T16:49:39.344Z,5.77
2017-12-12T16:52:07.684Z,5.64
2017-12-12T16:54:37.231Z,5.53
2017-12-12T16:57:05.592Z,5.54
2017-12-12T16:59:33.953Z,5.38
2017-12-12T17:02:03.805Z,5.33
2017-12-12T17:04:32.576Z,5.21
2017-12-12T17:07:01.302Z,5.26
2017-12-12T17:09:30.102Z,5.36
2017-12-12T17:11:58.826Z,5.48
2017-12-12T17:14:27.260Z,5.48
2017-12-12T17:16:56.944Z,5.53
2017-12-12T17:19:25.443Z,5.52
2017-12-12T17:21:55.425Z,5.55
2017-12-12T17:24:23.752Z,5.58
2017-12-12T17:26:52.081Z,5.57
2017-12-12T17:29:20.504Z,5.56
2017-12-12T17:31:49.057Z,5.67
2017-12-12T17:34:18.988Z,5.78
2017-12-12T17:36:48.155Z,5.92
2017-12-12T17:39:18.384Z,6.01
2017-12-12T17:41:46.859Z,5.87
2017-12-12T17:44:15.264Z,5.90
2017-12-12T17:46:43.583Z,5.65
2017-12-12T17:49:12.080Z,5.71
2017-12-12T17:51:41.015Z,5.90
2017-12-12T17:54:10.889Z,5.86
2017-12-12T17:56:40.543Z,5.90
2017-12-12T17:59:10.288Z,5.89
2017-12-12T18:01:40.692Z,5.81
2017-12-12T18:04:10.397Z,5.89
2017-12-12T18:06:38.779Z,5.97
2017-12-12T18:09:07.115Z,6.06
2017-12-12T18:11:36.887Z,6.02
2017-12-12T18:14:05.232Z,6.02
2017-12-12T18:16:34.039Z,5.96
2017-12-12T18:19:03.144Z,5.99
2017-12-12T18:21:32.271Z,6.18
2017-12-12T18:24:00.669Z,6.13
2017-12-12T18:26:29.083Z,6.32
2017-12-12T18:28:58.584Z,6.22
2017-12-12T18:31:28.273Z,6.21
2017-12-12T18:33:57.309Z,6.08
2017-12-12T18:36:26.463Z,5.92
2017-12-12T18:38:54.798Z,5.68
2017-12-12T18:41:23.219Z,5.44
2017-12-12T18:43:51.616Z,5.31
2017-12-12T18:46:20.831Z,5.15
2017-12-12T18:48:49.605Z,5.08
2017-12-12T18:51:19.469Z,4.92
2017-12-12T18:53:47.844Z,5.02
2017-12-12T18:56:16.269Z,4.93
2017-12-12T18:58:44.611Z,4.95
2017-12-12T19:01:13.344Z,4.79
2017-12-12T19:03:42.938Z,4.77
2017-12-12T19:06:13.416Z,4.54
2017-12-12T19:08:41.995Z,4.62
2017-12-12T19:11:11.787Z,4.49
2017-12-12T19:13:45.191Z,4.65
2017-12-12T19:16:15.328Z,4.75
2017-12-12T19:18:43.823Z,4.77
2017-12-12T19:21:14.247Z,4.72
2017-12-12T19:23:45.235Z,4.82
2017-12-12T19:26:15.406Z,4.83
2017-12-12T19:28:44.044Z,4.68
2017-12-12T19:31:14.561Z,4.73
2017-12-12T19:33:43.017Z,4.78
2017-12-12T19:36:11.395Z,4.68
2017-12-12T19:38:39.807Z,4.83
2017-12-12T19:41:09.176Z,4.79
2017-12-12T19:43:37.977Z,4.80
2017-12-12T19:46:07.911Z,4.79
2017-12-12T19:48:37.071Z,4.92
2017-12-12T19:51:07.216Z,4.90
2017-12-12T19:53:35.967Z,4.83
2017-12-12T19:56:04.455Z,4.87
2017-12-12T19:58:36.099Z,4.75
2017-12-12T20:01:07.100Z,4.61
2017-12-12T20:03:38.392Z,4.68
2017-12-12T20:06:07.695Z,4.83
2017-12-12T20:08:36.792Z,4.83
2017-12-12T20:11:06.235Z,4.89
2017-12-12T20:13:36.739Z,4.74
2017-12-12T20:16:07.071Z,4.39
2017-12-12T20:18:36.251Z,4.26
2017-12-12T20:21:05.044Z,4.17
2017-12-12T20:23:33.475Z,4.24
2017-12-12T20:26:03.267Z,4.16
2017-12-12T20:28:32.987Z,4.27
2017-12-12T20:31:02.767Z,4.24
2017-12-12T20:33:31.803Z,4.13
2017-12-12T20:36:00.765Z,4.25
2017-12-12T20:38:43.687Z,4.35
2017-12-12T20:41:13.394Z,4.35
2017-12-12T20:43:42.574Z,4.27
2017-12-12T20:46:15.830Z,4.15
2017-12-12T20:48:46.307Z,4.23
2017-12-12T20:51:15.655Z,4.13
2017-12-12T20:53:44.562Z,3.83
2017-12-12T20:56:16.130Z,3.72
2017-12-12T20:58:46.346Z,3.80
2017-12-12T21:01:15.248Z,3.58
2017-12-12T21:03:45.946Z,3.81
2017-12-12T21:06:14.682Z,3.73
2017-12-12T21:08:45.131Z,3.59
2017-12-12T21:11:17.516Z,3.56
2017-12-12T21:13:47.554Z,3.38
2017-12-12T21:16:16.807Z,3.24
2017-12-12T21:18:47.243Z,3.22
2017-12-12T21:21:17.646Z,3.32
2017-12-12T21:23:52.200Z,3.41
2017-12-12T21:26:21.316Z,3.53
2017-12-12T21:28:50.524Z,3.52
2017-12-12T21:31:18.926Z,3.52
2017-12-12T21:33:49.160Z,3.55
2017-12-12T21:36:18.290Z,3.63
2017-12-12T21:38:49.774Z,3.64
2017-12-12T21:41:18.187Z,3.68
2017-12-12T21:43:46.562Z,3.74
2017-12-12T21:46:16.246Z,3.71
2017-12-12T21:48:44.614Z,3.58
2017-12-12T21:51:13.254Z,3.51
2017-12-12T21:53:43.270Z,3.44
2017-12-12T21:56:12.036Z,3.40
2017-12-12T21:58:40.474Z,3.37
2017-12-12T22:01:08.931Z,3.36
2017-12-12T22:03:37.250Z,3.40
2017-12-12T22:06:05.698Z,3.43
2017-12-12T22:08:34.026Z,3.48
2017-12-12T22:11:02.386Z,3.52
2017-12-12T22:13:30.710Z,3.61
2017-12-12T22:15:59.478Z,3.61
2017-12-12T22:18:27.833Z,3.66
2017-12-12T22:20:57.290Z,3.71
2017-12-12T22:23:26.048Z,3.80
2017-12-12T22:25:54.370Z,3.85
2017-12-12T22:28:23.501Z,3.91
2017-12-12T22:30:52.977Z,3.94
2017-12-12T22:33:21.341Z,3.95
2017-12-12T22:35:49.679Z,3.93
2017-12-12T22:38:18.773Z,4.02
2017-12-12T22:40:48.682Z,4.04
2017-12-12T22:43:17.069Z,3.87
2017-12-12T22:45:45.905Z,3.92
2017-12-12T22:48:14.732Z,4.04
2017-12-12T22:50:43.094Z,4.05
2017-12-12T22:53:12.201Z,4.16
2017-12-12T22:55:40.581Z,4.08
2017-12-12T22:58:08.985Z,4.11
2017-12-12T23:00:37.341Z,4.11
2017-12-12T23:03:05.734Z,4.15
2017-12-12T23:05:34.164Z,4.07
2017-12-12T23:08:02.925Z,4.03
2017-12-12T23:10:31.244Z,4.09
2017-12-12T23:12:59.637Z,4.08
2017-12-12T23:15:27.997Z,4.01
2017-12-12T23:17:56.410Z,3.98
2017-12-12T23:20:24.741Z,3.96
2017-12-12T23:22:54.197Z,3.95
2017-12-12T23:25:23.953Z,3.95
2017-12-12T23:27:52.321Z,3.93
2017-12-12T23:30:20.682Z,3.97
2017-12-12T23:32:50.136Z,4.02
2017-12-12T23:35:18.889Z,3.82
2017-12-12T23:37:47.244Z,3.68
2017-12-12T23:40:16.416Z,3.60
2017-12-12T23:42:44.768Z,3.50
2017-12-12T23:45:13.133Z,3.44
2017-12-12T23:47:41.512Z,3.39
2017-12-12T23:50:10.986Z,3.39
2017-12-12T23:52:39.729Z,3.33
2017-12-12T23:55:08.084Z,3.25
2017-12-12T23:57:36.464Z,3.24
